Main page
METAR-TAF:

METAR-TAF

Airports :

Baghdad International Airport

Baghdad, Iraq

latitude: 33-15-45N, longitude: 44-14-04E, elevation: 35 m

Current weather observation

The report was made 27 minutes ago, at 00:00 UTC
Wind 4 kt from the West
Temperature 7°C
Humidity 76%
Pressure 1020 hPa
Visibility 10 km or more
no clouds below 1500 m and no cumulonimbus

METAR: ORBI 230000Z 27004KT CAVOK 07/03 Q1020 NOSIG

Time: 03:27 (00:27 UTC)

Forecast

The report was made 2 hours and 27 minutes ago, at 22:00 UTC
Forecast valid from 23 at 00 UTC to 23 at 24 UTC
Wind 3 kt from variable directions
Visibility: 8000 m
Scattered clouds at a height of 3000 ft

TAF: ORBI 222200Z 2300/2324 VRB03KT 8000 SCT030

Weather observations and forecasts of more than 4000 airports (METAR and TAF reports).

The available stations are represented by yellow and red dots on the map.

Hover mouse over dot to see the name of the station.

Then click to see weather observations and forecasts.

To change the map : click on the green buttons with a black cross to zoom in, on the green button with a dash to zoom out, or on the green arrows for adjacent maps.


METAR-TAF: